Time;durP1;ratioP1;P1;durP2;ratioP2;P2;SDS_P1;SDS_P2;PMS_P1;PMS_P2;Temp;Humidity;BMP_temperature;BMP_pressure;BME280_temperature;BME280_humidity;BME280_pressure;Samples;Min_cycle;Max_cycle;Signal;HPM_P1;HPM_P2
2023/06/01 00:00:14;;;;;;;404.23;250.90;;;;;;;;;;5043201;28;20075;-65
2023/06/01 00:02:41;;;;;;;300.07;196.70;;;;;;;;;;5041203;28;20358;-64
2023/06/01 00:05:06;;;;;;;411.97;264.53;;;;;;;;;;5058102;28;20292;-65
2023/06/01 00:07:33;;;;;;;408.20;256.67;;;;;;;;;;5041648;28;20057;-65
2023/06/01 00:10:00;;;;;;;415.70;272.97;;;;;;;;;;5043728;28;20040;-67
2023/06/01 00:12:25;;;;;;;297.63;193.33;;;;;;;;;;5042588;28;21353;-65
2023/06/01 00:14:51;;;;;;;205.73;134.73;;;;;;;;;;5040543;28;20302;-65
2023/06/01 00:17:16;;;;;;;418.10;272.77;;;;;;;;;;5041385;28;20052;-64
2023/06/01 00:19:44;;;;;;;300.17;200.43;;;;;;;;;;5023762;28;20037;-65
2023/06/01 00:22:10;;;;;;;406.67;257.57;;;;;;;;;;5042304;28;20674;-65
2023/06/01 00:24:36;;;;;;;409.77;264.40;;;;;;;;;;5043204;28;20274;-65
2023/06/01 00:27:02;;;;;;;200.50;125.77;;;;;;;;;;5021528;28;20446;-65
2023/06/01 00:29:27;;;;;;;408.07;254.10;;;;;;;;;;5038614;28;20070;-66
2023/06/01 00:31:52;;;;;;;299.53;195.83;;;;;;;;;;5042007;28;20128;-66
2023/06/01 00:34:18;;;;;;;422.50;278.60;;;;;;;;;;5041575;28;20042;-65
2023/06/01 00:36:44;;;;;;;403.03;251.00;;;;;;;;;;5039639;28;20124;-66
2023/06/01 00:39:10;;;;;;;305.77;215.80;;;;;;;;;;5023301;28;20086;-66
2023/06/01 00:41:35;;;;;;;414.13;270.70;;;;;;;;;;5023350;28;20060;-65
2023/06/01 00:44:01;;;;;;;406.67;263.87;;;;;;;;;;5024910;28;20287;-65
2023/06/01 00:46:27;;;;;;;400.80;254.50;;;;;;;;;;5039341;28;20061;-65
2023/06/01 00:48:53;;;;;;;410.00;256.10;;;;;;;;;;5022958;28;20030;-65
2023/06/01 00:51:19;;;;;;;300.83;188.33;;;;;;;;;;5041390;28;20294;-65
2023/06/01 00:53:45;;;;;;;416.87;256.83;;;;;;;;;;5030756;28;20476;-65
2023/06/01 00:56:13;;;;;;;407.47;251.67;;;;;;;;;;5039211;28;20302;-66
2023/06/01 00:58:39;;;;;;;295.20;183.60;;;;;;;;;;5038024;28;20032;-65
2023/06/01 01:01:05;;;;;;;302.20;189.07;;;;;;;;;;5038034;28;20283;-65
2023/06/01 01:03:34;;;;;;;414.17;254.10;;;;;;;;;;5040024;28;20768;-64
2023/06/01 01:06:25;;;;;;;299.60;187.57;;;;;;;;;;5041287;28;20036;-65
2023/06/01 01:09:14;;;;;;;302.27;178.13;;;;;;;;;;4958492;28;20297;-66
2023/06/01 01:11:42;;;;;;;413.60;251.37;;;;;;;;;;4958180;28;20286;-66
2023/06/01 01:14:11;;;;;;;408.20;240.23;;;;;;;;;;4959331;28;20298;-66
2023/06/01 01:16:45;;;;;;;416.23;259.13;;;;;;;;;;4942699;28;20309;-65
2023/06/01 01:19:32;;;;;;;292.37;178.90;;;;;;;;;;4942657;28;20376;-66
2023/06/01 01:22:07;;;;;;;413.63;252.90;;;;;;;;;;4943400;28;20289;-64
2023/06/01 01:24:43;;;;;;;405.63;240.63;;;;;;;;;;4942853;28;20896;-66
2023/06/01 01:27:25;;;;;;;402.17;229.93;;;;;;;;;;4942917;28;21006;-65
2023/06/01 01:29:52;;;;;;;314.23;196.53;;;;;;;;;;4943049;28;20297;-65
2023/06/01 01:32:19;;;;;;;422.23;259.97;;;;;;;;;;4958608;28;20877;-65
2023/06/01 01:34:45;;;;;;;403.40;228.53;;;;;;;;;;4959239;28;20349;-65
2023/06/01 01:37:10;;;;;;;301.97;179.97;;;;;;;;;;4959424;28;20437;-65
2023/06/01 01:39:36;;;;;;;416.73;247.23;;;;;;;;;;4959293;28;20274;-65
2023/06/01 01:42:02;;;;;;;413.03;243.50;;;;;;;;;;4942882;28;21074;-65
2023/06/01 01:44:29;;;;;;;301.50;180.83;;;;;;;;;;4942318;28;20346;-65
2023/06/01 01:47:09;;;;;;;413.60;244.13;;;;;;;;;;4981581;28;20038;-65
2023/06/01 01:49:41;;;;;;;431.40;279.17;;;;;;;;;;4999383;28;20342;-65
2023/06/01 01:52:10;;;;;;;300.33;176.50;;;;;;;;;;5001256;28;20269;-65
2023/06/01 01:54:42;;;;;;;429.13;264.87;;;;;;;;;;4999740;28;20296;-65
2023/06/01 01:57:07;;;;;;;320.60;225.07;;;;;;;;;;5014334;28;20347;-65
2023/06/01 01:59:33;;;;;;;422.07;258.63;;;;;;;;;;4999819;28;20388;-65
2023/06/01 02:01:59;;;;;;;420.93;251.47;;;;;;;;;;4999338;28;20473;-65
2023/06/01 02:04:25;;;;;;;424.70;268.40;;;;;;;;;;5000022;28;20073;-65
2023/06/01 02:06:51;;;;;;;433.50;300.50;;;;;;;;;;5000435;28;20115;-65
2023/06/01 02:09:17;;;;;;;447.93;349.03;;;;;;;;;;5016237;28;20923;-65
2023/06/01 02:11:43;;;;;;;446.93;355.90;;;;;;;;;;5021384;28;20048;-65
2023/06/01 02:14:09;;;;;;;447.00;341.20;;;;;;;;;;5007983;28;20107;-65
2023/06/01 02:16:35;;;;;;;445.67;343.00;;;;;;;;;;5019301;28;20651;-65
2023/06/01 02:19:02;;;;;;;427.23;275.23;;;;;;;;;;5020292;28;20524;-65
2023/06/01 02:21:28;;;;;;;456.20;384.40;;;;;;;;;;5035959;28;20818;-66
2023/06/01 02:24:04;;;;;;;333.63;274.53;;;;;;;;;;5034688;28;20295;-64
2023/06/01 02:26:30;;;;;;;453.13;360.80;;;;;;;;;;5017890;28;20324;-64
2023/06/01 02:28:56;;;;;;;326.40;250.57;;;;;;;;;;5019722;28;20348;-64
2023/06/01 02:31:21;;;;;;;445.23;335.93;;;;;;;;;;5018567;28;20829;-65
2023/06/01 02:33:47;;;;;;;460.87;401.90;;;;;;;;;;5020642;28;20113;-65
2023/06/01 02:36:16;;;;;;;467.60;416.00;;;;;;;;;;5024110;28;20590;-64
2023/06/01 02:38:42;;;;;;;456.97;372.87;;;;;;;;;;5020498;28;20253;-64
2023/06/01 02:41:08;;;;;;;446.27;338.47;;;;;;;;;;5035842;28;20284;-64
2023/06/01 02:43:35;;;;;;;438.13;317.90;;;;;;;;;;5019384;28;20453;-64
2023/06/01 02:46:00;;;;;;;451.80;361.97;;;;;;;;;;5034831;28;20118;-66
2023/06/01 02:48:26;;;;;;;456.67;375.87;;;;;;;;;;5024605;28;20276;-65
2023/06/01 02:50:52;;;;;;;454.17;361.30;;;;;;;;;;5019896;28;20040;-65
2023/06/01 02:53:17;;;;;;;450.07;360.13;;;;;;;;;;5018785;28;20409;-64
2023/06/01 02:55:42;;;;;;;449.63;347.07;;;;;;;;;;5009392;28;20115;-63
2023/06/01 02:58:29;;;;;;;446.53;343.03;;;;;;;;;;4990591;28;20056;-64
2023/06/01 03:01:19;;;;;;;333.77;277.30;;;;;;;;;;5016234;28;20870;-64
2023/06/01 03:03:46;;;;;;;460.03;399.57;;;;;;;;;;5022059;28;20288;-64
2023/06/01 03:06:13;;;;;;;456.73;381.23;;;;;;;;;;5021570;28;20633;-64
2023/06/01 03:09:01;;;;;;;451.43;356.93;;;;;;;;;;5037414;28;20148;-63
2023/06/01 03:11:45;;;;;;;457.37;386.77;;;;;;;;;;5039014;28;20312;-64
2023/06/01 03:14:11;;;;;;;449.17;352.30;;;;;;;;;;5000112;28;20299;-64
2023/06/01 03:16:36;;;;;;;457.63;377.67;;;;;;;;;;5036755;28;20463;-66
2023/06/01 03:19:10;;;;;;;445.20;336.23;;;;;;;;;;5021840;28;20076;-65
2023/06/01 03:21:36;;;;;;;453.20;363.47;;;;;;;;;;5009882;28;20545;-66
2023/06/01 03:24:02;;;;;;;458.67;384.47;;;;;;;;;;5019567;28;20787;-65
2023/06/01 03:26:28;;;;;;;462.67;391.83;;;;;;;;;;5019938;28;20291;-66
2023/06/01 03:28:53;;;;;;;452.53;371.77;;;;;;;;;;5023473;28;20114;-63
2023/06/01 03:31:19;;;;;;;468.10;399.50;;;;;;;;;;5041886;28;20345;-65
2023/06/01 03:33:45;;;;;;;463.53;396.40;;;;;;;;;;5013885;28;20156;-65
2023/06/01 03:36:11;;;;;;;455.10;376.03;;;;;;;;;;5043801;28;20848;-64
2023/06/01 03:38:37;;;;;;;460.57;388.83;;;;;;;;;;5024767;28;20036;-63
2023/06/01 03:41:03;;;;;;;457.63;386.07;;;;;;;;;;5024524;28;20778;-64
2023/06/01 03:43:28;;;;;;;468.80;412.27;;;;;;;;;;5042296;28;20143;-62
2023/06/01 03:45:53;;;;;;;460.37;398.43;;;;;;;;;;5040085;28;20029;-64
2023/06/01 03:48:19;;;;;;;461.37;404.30;;;;;;;;;;5039267;28;20465;-63
2023/06/01 03:50:46;;;;;;;458.53;395.07;;;;;;;;;;5024854;28;20033;-63
2023/06/01 03:53:11;;;;;;;460.70;399.37;;;;;;;;;;5014013;28;20317;-63
2023/06/01 03:55:37;;;;;;;459.40;386.57;;;;;;;;;;5007480;28;20048;-62
2023/06/01 03:58:30;;;;;;;463.23;406.53;;;;;;;;;;5040448;28;20041;-62
2023/06/01 04:00:56;;;;;;;490.67;438.47;;;;;;;;;;5031538;28;20817;-63
2023/06/01 04:03:24;;;;;;;464.90;400.47;;;;;;;;;;5038612;28;20306;-63
2023/06/01 04:05:50;;;;;;;466.23;402.73;;;;;;;;;;5023660;28;20832;-63
2023/06/01 04:08:16;;;;;;;463.43;411.47;;;;;;;;;;5021302;28;20329;-63
2023/06/01 04:10:41;;;;;;;346.30;307.13;;;;;;;;;;5035405;28;20057;-62
2023/06/01 04:13:07;;;;;;;470.17;418.33;;;;;;;;;;5020461;28;20885;-62
2023/06/01 04:15:33;;;;;;;476.37;424.60;;;;;;;;;;5004585;28;20091;-61
2023/06/01 04:17:59;;;;;;;455.80;393.83;;;;;;;;;;5021363;28;20033;-62
2023/06/01 04:20:26;;;;;;;471.80;420.40;;;;;;;;;;5018892;28;20296;-62
2023/06/01 04:22:51;;;;;;;475.60;423.93;;;;;;;;;;5021445;28;20347;-62
2023/06/01 04:25:17;;;;;;;479.73;427.80;;;;;;;;;;5021634;28;20037;-62
2023/06/01 04:27:44;;;;;;;501.37;449.40;;;;;;;;;;5011332;28;20114;-62
2023/06/01 04:30:11;;;;;;;455.93;398.87;;;;;;;;;;5020922;28;20264;-62
2023/06/01 04:32:37;;;;;;;479.90;428.53;;;;;;;;;;5011110;28;20852;-62
2023/06/01 04:35:07;;;;;;;454.90;398.80;;;;;;;;;;5019399;28;20305;-62
2023/06/01 04:37:34;;;;;;;524.00;471.23;;;;;;;;;;5010282;28;20620;-62
2023/06/01 04:40:00;;;;;;;501.60;449.77;;;;;;;;;;5025575;28;20381;-62
2023/06/01 04:42:25;;;;;;;514.13;462.00;;;;;;;;;;5022569;28;20811;-61
2023/06/01 04:44:51;;;;;;;523.87;471.27;;;;;;;;;;5035031;28;20836;-61
2023/06/01 04:47:17;;;;;;;521.07;468.57;;;;;;;;;;5018779;28;20084;-61
2023/06/01 04:49:46;;;;;;;543.13;489.73;;;;;;;;;;5036594;28;20025;-60
2023/06/01 04:52:12;;;;;;;550.73;497.77;;;;;;;;;;5021695;28;20276;-62
2023/06/01 04:54:39;;;;;;;564.30;510.93;;;;;;;;;;5018919;28;20037;-62
2023/06/01 04:57:07;;;;;;;514.10;462.27;;;;;;;;;;5018142;28;20668;-61
2023/06/01 04:59:33;;;;;;;559.63;506.57;;;;;;;;;;5020710;28;20116;-62
2023/06/01 05:01:59;;;;;;;565.40;512.17;;;;;;;;;;5036662;28;20318;-61
2023/06/01 05:04:25;;;;;;;567.10;514.03;;;;;;;;;;5020949;28;20076;-61
2023/06/01 05:06:50;;;;;;;553.20;500.50;;;;;;;;;;5020401;28;20371;-61
2023/06/01 05:09:18;;;;;;;594.40;540.63;;;;;;;;;;4986687;28;20065;-61
2023/06/01 05:11:43;;;;;;;550.33;497.80;;;;;;;;;;5001067;28;21441;-63
2023/06/01 05:14:08;;;;;;;595.63;541.93;;;;;;;;;;5001445;28;20656;-65
2023/06/01 05:16:35;;;;;;;597.03;543.23;;;;;;;;;;4984588;28;20037;-65
2023/06/01 05:19:01;;;;;;;614.17;559.97;;;;;;;;;;5000083;28;20362;-65
2023/06/01 05:21:27;;;;;;;616.93;562.17;;;;;;;;;;5000989;28;20353;-66
2023/06/01 05:23:53;;;;;;;623.67;569.37;;;;;;;;;;5017078;28;20650;-65
2023/06/01 05:26:19;;;;;;;627.37;573.07;;;;;;;;;;5001438;28;20041;-66
2023/06/01 05:28:44;;;;;;;647.77;592.97;;;;;;;;;;4998125;28;20434;-66
2023/06/01 05:31:11;;;;;;;624.83;570.63;;;;;;;;;;4998274;28;20040;-66
2023/06/01 05:33:42;;;;;;;646.00;591.30;;;;;;;;;;5000466;28;20408;-66
2023/06/01 05:36:08;;;;;;;650.83;595.77;;;;;;;;;;4990478;28;20983;-65
2023/06/01 05:38:33;;;;;;;645.20;590.00;;;;;;;;;;4999962;28;20050;-65
2023/06/01 05:40:59;;;;;;;658.17;603.57;;;;;;;;;;4998243;28;20053;-65
2023/06/01 05:43:24;;;;;;;675.90;619.70;;;;;;;;;;5000068;28;20034;-66
2023/06/01 05:45:50;;;;;;;661.07;606.20;;;;;;;;;;5000014;28;20045;-64
2023/06/01 05:48:16;;;;;;;647.43;592.60;;;;;;;;;;4999473;28;20083;-66
2023/06/01 05:50:46;;;;;;;663.53;608.17;;;;;;;;;;4985073;28;20021;-64
2023/06/01 05:53:11;;;;;;;653.50;598.87;;;;;;;;;;5000218;28;20065;-65
2023/06/01 05:55:37;;;;;;;672.10;616.30;;;;;;;;;;4988595;28;20069;-65
2023/06/01 05:58:02;;;;;;;682.93;627.57;;;;;;;;;;5000469;28;20546;-65
2023/06/01 06:00:28;;;;;;;693.43;637.87;;;;;;;;;;4989083;28;20041;-66
2023/06/01 06:02:53;;;;;;;678.60;623.53;;;;;;;;;;5001610;28;20049;-65
2023/06/01 06:05:19;;;;;;;689.20;633.83;;;;;;;;;;5000697;28;20040;-66
2023/06/01 06:07:44;;;;;;;715.53;659.23;;;;;;;;;;5011537;28;20065;-65
2023/06/01 06:10:11;;;;;;;725.43;668.80;;;;;;;;;;5040679;28;20037;-66
2023/06/01 06:12:38;;;;;;;724.80;668.37;;;;;;;;;;5040055;28;20041;-66
2023/06/01 06:15:04;;;;;;;731.73;674.93;;;;;;;;;;5039827;28;20045;-66
2023/06/01 06:17:29;;;;;;;725.20;669.00;;;;;;;;;;5040421;28;20182;-66
2023/06/01 06:19:55;;;;;;;737.67;680.97;;;;;;;;;;5040437;28;20529;-65
2023/06/01 06:22:21;;;;;;;731.23;674.50;;;;;;;;;;5040834;28;20383;-65
2023/06/01 06:24:47;;;;;;;739.17;682.73;;;;;;;;;;5040578;28;20051;-66
2023/06/01 06:27:12;;;;;;;737.40;679.57;;;;;;;;;;5040510;28;20041;-66
2023/06/01 06:29:38;;;;;;;764.63;707.27;;;;;;;;;;5042919;28;21031;-66
2023/06/01 06:32:04;;;;;;;757.87;700.97;;;;;;;;;;5040319;28;20044;-66
2023/06/01 06:34:35;;;;;;;765.27;708.07;;;;;;;;;;5040829;28;20079;-65
2023/06/01 06:37:05;;;;;;;762.40;705.40;;;;;;;;;;5041052;28;20036;-68
2023/06/01 06:39:30;;;;;;;760.43;703.33;;;;;;;;;;5038510;28;20475;-67
2023/06/01 06:41:56;;;;;;;772.27;714.87;;;;;;;;;;5039600;28;20485;-67
2023/06/01 06:44:21;;;;;;;767.57;710.13;;;;;;;;;;5040198;28;20045;-64
2023/06/01 06:46:46;;;;;;;776.53;719.23;;;;;;;;;;5021377;28;20029;-64
2023/06/01 06:49:12;;;;;;;775.40;717.77;;;;;;;;;;5037872;28;20581;-66
2023/06/01 06:51:37;;;;;;;772.50;715.27;;;;;;;;;;5039850;28;20124;-65
2023/06/01 06:54:05;;;;;;;768.27;711.10;;;;;;;;;;5039785;28;20048;-65
2023/06/01 06:56:31;;;;;;;790.87;733.27;;;;;;;;;;5037508;28;20049;-65
2023/06/01 06:58:56;;;;;;;786.90;729.37;;;;;;;;;;5041255;28;20039;-65
2023/06/01 07:01:25;;;;;;;790.20;732.60;;;;;;;;;;5038967;28;20064;-65
2023/06/01 07:03:53;;;;;;;786.77;729.17;;;;;;;;;;5041661;28;20587;-64
2023/06/01 07:06:20;;;;;;;791.90;734.10;;;;;;;;;;5043566;28;20686;-65
2023/06/01 07:08:45;;;;;;;784.87;727.20;;;;;;;;;;5044186;28;20463;-64
2023/06/01 07:11:11;;;;;;;786.60;729.13;;;;;;;;;;5043191;28;20045;-67
2023/06/01 07:13:37;;;;;;;792.03;734.10;;;;;;;;;;5043370;28;20407;-61
2023/06/01 07:16:04;;;;;;;788.47;730.60;;;;;;;;;;5025400;28;20468;-61
2023/06/01 07:18:30;;;;;;;794.77;737.00;;;;;;;;;;5044099;28;20032;-64
2023/06/01 07:20:56;;;;;;;803.33;745.03;;;;;;;;;;5040977;28;20453;-61
2023/06/01 07:23:22;;;;;;;789.60;732.13;;;;;;;;;;5041240;28;20123;-61
2023/06/01 07:25:47;;;;;;;805.77;747.53;;;;;;;;;;5041408;28;20340;-61
2023/06/01 07:28:13;;;;;;;807.70;749.67;;;;;;;;;;5043173;28;20462;-65
2023/06/01 07:30:39;;;;;;;802.63;744.67;;;;;;;;;;5045452;28;20499;-61
2023/06/01 07:33:04;;;;;;;749.67;693.47;;;;;;;;;;5017175;28;20034;-60
2023/06/01 07:35:30;;;;;;;760.83;704.33;;;;;;;;;;5042382;28;20132;-61
2023/06/01 07:37:55;;;;;;;771.33;714.47;;;;;;;;;;5015580;28;20175;-61
2023/06/01 07:40:21;;;;;;;798.33;740.63;;;;;;;;;;5044528;28;20037;-61
2023/06/01 07:42:46;;;;;;;799.10;741.27;;;;;;;;;;5043061;28;20119;-62
2023/06/01 07:45:13;;;;;;;797.53;739.93;;;;;;;;;;5042501;28;20482;-62
2023/06/01 07:47:38;;;;;;;810.13;752.13;;;;;;;;;;5042856;28;20115;-62
2023/06/01 07:50:04;;;;;;;807.90;750.17;;;;;;;;;;5043161;28;20134;-63
2023/06/01 07:52:29;;;;;;;803.77;745.87;;;;;;;;;;5042855;28;20513;-62
2023/06/01 07:54:55;;;;;;;804.70;747.30;;;;;;;;;;5043410;28;20036;-61
2023/06/01 07:57:21;;;;;;;799.80;742.20;;;;;;;;;;5043045;28;20045;-63
2023/06/01 07:59:46;;;;;;;818.63;760.13;;;;;;;;;;5042421;28;20040;-63
2023/06/01 08:02:13;;;;;;;821.70;763.40;;;;;;;;;;5042258;28;20415;-62
2023/06/01 08:04:39;;;;;;;814.10;756.20;;;;;;;;;;5043000;28;20048;-62
2023/06/01 08:07:06;;;;;;;836.53;777.57;;;;;;;;;;5043207;28;20482;-65
2023/06/01 08:09:31;;;;;;;836.77;777.87;;;;;;;;;;5041559;28;20098;-67
2023/06/01 08:11:57;;;;;;;830.63;772.00;;;;;;;;;;5043058;28;20412;-63
2023/06/01 08:14:23;;;;;;;821.50;763.43;;;;;;;;;;5023081;28;20048;-62
2023/06/01 08:16:48;;;;;;;848.30;789.37;;;;;;;;;;5041069;28;20523;-62
2023/06/01 08:19:14;;;;;;;830.50;772.00;;;;;;;;;;5042191;28;20510;-63
2023/06/01 08:21:41;;;;;;;787.57;730.77;;;;;;;;;;5025050;28;20102;-63
2023/06/01 08:24:08;;;;;;;802.87;745.63;;;;;;;;;;5043739;28;20044;-64
2023/06/01 08:26:34;;;;;;;817.50;759.63;;;;;;;;;;5042907;28;20049;-62
2023/06/01 08:29:00;;;;;;;811.63;753.77;;;;;;;;;;5043348;28;20091;-62
2023/06/01 08:31:25;;;;;;;831.30;773.23;;;;;;;;;;5042791;28;20037;-63
2023/06/01 08:33:51;;;;;;;817.63;760.00;;;;;;;;;;5026070;28;20478;-63
2023/06/01 08:36:17;;;;;;;785.13;728.83;;;;;;;;;;5043449;28;20042;-64
2023/06/01 08:38:43;;;;;;;797.57;740.60;;;;;;;;;;5043714;28;20098;-64
2023/06/01 08:41:25;;;;;;;801.57;744.30;;;;;;;;;;5040664;28;20036;-63
2023/06/01 08:44:03;;;;;;;816.57;758.87;;;;;;;;;;5041160;28;20364;-62
2023/06/01 08:46:30;;;;;;;814.07;756.80;;;;;;;;;;5041956;28;20045;-64
2023/06/01 08:48:57;;;;;;;816.87;759.40;;;;;;;;;;5040551;28;20033;-64
2023/06/01 08:51:24;;;;;;;878.53;818.63;;;;;;;;;;5041391;28;20120;-63
2023/06/01 08:53:50;;;;;;;864.57;805.37;;;;;;;;;;5043026;28;20045;-64
2023/06/01 08:56:15;;;;;;;869.73;810.33;;;;;;;;;;5040813;28;20094;-62
2023/06/01 08:58:41;;;;;;;867.10;807.57;;;;;;;;;;5040655;28;20202;-62
2023/06/01 09:01:07;;;;;;;858.27;798.47;;;;;;;;;;5041181;28;20045;-62
2023/06/01 09:03:32;;;;;;;881.20;821.33;;;;;;;;;;5042355;28;20587;-63
2023/06/01 09:05:58;;;;;;;874.93;815.00;;;;;;;;;;5041739;28;20835;-63
2023/06/01 09:08:24;;;;;;;874.50;815.00;;;;;;;;;;5045630;28;20104;-61
2023/06/01 09:10:49;;;;;;;834.80;776.87;;;;;;;;;;5039924;28;20034;-61
2023/06/01 09:13:30;;;;;;;831.43;773.50;;;;;;;;;;5040905;28;20048;-60
2023/06/01 09:15:55;;;;;;;807.33;750.47;;;;;;;;;;5042883;28;20029;-61
2023/06/01 09:18:21;;;;;;;841.87;783.33;;;;;;;;;;5041250;28;20099;-62
2023/06/01 09:20:46;;;;;;;832.00;774.33;;;;;;;;;;5013394;28;20033;-62
2023/06/01 09:23:22;;;;;;;817.20;759.80;;;;;;;;;;5041064;28;20045;-59
2023/06/01 09:26:03;;;;;;;836.47;778.47;;;;;;;;;;5040350;28;20264;-61
2023/06/01 09:28:28;;;;;;;768.80;713.43;;;;;;;;;;5042645;28;20033;-62
2023/06/01 09:30:54;;;;;;;804.03;747.13;;;;;;;;;;5041422;28;20507;-61
2023/06/01 09:33:20;;;;;;;815.10;757.73;;;;;;;;;;5039960;28;20071;-62
2023/06/01 09:35:45;;;;;;;829.47;771.80;;;;;;;;;;5042216;28;20037;-61
2023/06/01 09:38:12;;;;;;;841.20;783.00;;;;;;;;;;5040305;28;20566;-60
2023/06/01 09:40:38;;;;;;;832.00;774.67;;;;;;;;;;5041717;28;20064;-60
2023/06/01 09:43:18;;;;;;;836.53;778.53;;;;;;;;;;5041799;28;20067;-61
2023/06/01 09:45:43;;;;;;;830.93;773.10;;;;;;;;;;5040791;28;20052;-61
2023/06/01 09:48:18;;;;;;;820.27;762.97;;;;;;;;;;5040381;28;20041;-60
2023/06/01 09:50:44;;;;;;;837.60;779.93;;;;;;;;;;5040682;28;20555;-61
2023/06/01 09:53:09;;;;;;;840.97;783.17;;;;;;;;;;5039838;28;20725;-62
2023/06/01 09:55:35;;;;;;;855.13;796.50;;;;;;;;;;5042819;28;20516;-62
2023/06/01 09:58:31;;;;;;;855.50;797.10;;;;;;;;;;5041858;28;20143;-62
2023/06/01 10:00:59;;;;;;;841.20;783.37;;;;;;;;;;5023578;28;20128;-62
2023/06/01 10:03:25;;;;;;;860.17;801.27;;;;;;;;;;5040737;28;20128;-64
2023/06/01 10:05:51;;;;;;;871.73;812.30;;;;;;;;;;5012271;28;20043;-61
2023/06/01 10:08:17;;;;;;;867.47;808.37;;;;;;;;;;5009366;28;20066;-62
2023/06/01 10:10:44;;;;;;;877.27;817.80;;;;;;;;;;5001224;28;20038;-66
2023/06/01 10:13:11;;;;;;;894.97;834.87;;;;;;;;;;5003224;28;20259;-67
2023/06/01 10:15:36;;;;;;;896.47;836.67;;;;;;;;;;5000612;28;20195;-69
2023/06/01 10:18:05;;;;;;;886.63;826.63;;;;;;;;;;5000758;28;20030;-62
2023/06/01 10:20:35;;;;;;;897.20;837.00;;;;;;;;;;5002300;28;20611;-63
2023/06/01 10:23:00;;;;;;;889.10;829.30;;;;;;;;;;5000770;28;20034;-65
2023/06/01 10:25:28;;;;;;;887.57;827.87;;;;;;;;;;5000697;28;20030;-61
2023/06/01 10:28:12;;;;;;;897.67;837.60;;;;;;;;;;4999495;28;20150;-64
2023/06/01 10:30:38;;;;;;;895.40;835.47;;;;;;;;;;4994537;28;20115;-65
2023/06/01 10:33:03;;;;;;;887.97;828.30;;;;;;;;;;4995681;28;20528;-62
2023/06/01 10:35:29;;;;;;;883.23;823.70;;;;;;;;;;5001172;28;20041;-65
2023/06/01 10:38:12;;;;;;;878.67;819.20;;;;;;;;;;4999394;28;20361;-64
2023/06/01 10:40:45;;;;;;;872.37;813.07;;;;;;;;;;5002586;28;20028;-65
2023/06/01 10:43:29;;;;;;;879.83;820.60;;;;;;;;;;5001110;28;20116;-64
2023/06/01 10:45:55;;;;;;;872.50;813.33;;;;;;;;;;5000740;28;20076;-62
2023/06/01 10:48:40;;;;;;;892.23;832.67;;;;;;;;;;4998919;28;20401;-65
2023/06/01 10:51:23;;;;;;;876.90;818.07;;;;;;;;;;5000773;28;20366;-63
2023/06/01 10:53:49;;;;;;;890.67;831.00;;;;;;;;;;4998489;28;20034;-63
2023/06/01 10:56:24;;;;;;;877.93;818.30;;;;;;;;;;4999945;28;20547;-62
2023/06/01 10:59:10;;;;;;;866.53;808.10;;;;;;;;;;5000139;28;20038;-64
2023/06/01 11:01:40;;;;;;;871.73;812.67;;;;;;;;;;4998549;28;20042;-64
2023/06/01 11:04:06;;;;;;;862.80;803.67;;;;;;;;;;4994320;28;20112;-63
2023/06/01 11:06:42;;;;;;;873.00;814.43;;;;;;;;;;5000197;28;20484;-64
2023/06/01 11:09:10;;;;;;;877.53;818.70;;;;;;;;;;5033416;28;20053;-63
2023/06/01 11:11:48;;;;;;;865.80;807.70;;;;;;;;;;5039933;28;20036;-65
2023/06/01 11:14:14;;;;;;;856.03;798.27;;;;;;;;;;5038569;28;20101;-65
2023/06/01 11:16:40;;;;;;;870.00;811.97;;;;;;;;;;5038441;28;20044;-65
2023/06/01 11:19:06;;;;;;;870.00;811.77;;;;;;;;;;5040274;28;20029;-65
2023/06/01 11:21:36;;;;;;;856.60;799.30;;;;;;;;;;5039438;28;20032;-64
2023/06/01 11:24:20;;;;;;;837.93;781.10;;;;;;;;;;5019911;28;20185;-64
2023/06/01 11:26:50;;;;;;;843.00;785.67;;;;;;;;;;5039459;28;20392;-64
2023/06/01 11:29:15;;;;;;;860.27;802.50;;;;;;;;;;5020386;28;20029;-64
2023/06/01 11:31:43;;;;;;;860.23;802.43;;;;;;;;;;5040652;28;20037;-62
2023/06/01 11:34:09;;;;;;;853.73;796.00;;;;;;;;;;5038267;28;20283;-63
2023/06/01 11:36:47;;;;;;;874.63;803.60;;;;;;;;;;5039501;28;20436;-62
2023/06/01 11:39:28;;;;;;;846.63;789.53;;;;;;;;;;5039070;28;20183;-62
2023/06/01 11:42:06;;;;;;;833.00;776.70;;;;;;;;;;5040620;28;20045;-61
2023/06/01 11:44:32;;;;;;;837.20;780.90;;;;;;;;;;5037713;28;20450;-61
2023/06/01 11:46:58;;;;;;;830.40;774.47;;;;;;;;;;5039770;28;20036;-63
2023/06/01 11:49:24;;;;;;;833.77;777.47;;;;;;;;;;5019441;28;20048;-61
2023/06/01 11:51:55;;;;;;;810.73;755.50;;;;;;;;;;5043050;28;20170;-63
2023/06/01 11:54:22;;;;;;;801.93;746.87;;;;;;;;;;5042427;28;20074;-64
2023/06/01 11:56:48;;;;;;;813.40;757.90;;;;;;;;;;5044434;28;20041;-62
2023/06/01 11:59:13;;;;;;;820.87;765.03;;;;;;;;;;5042198;28;20469;-62
2023/06/01 12:01:42;;;;;;;828.57;772.90;;;;;;;;;;5007611;28;20446;-63
2023/06/01 12:04:14;;;;;;;810.80;755.57;;;;;;;;;;5042805;28;20041;-63
2023/06/01 12:06:40;;;;;;;823.83;768.40;;;;;;;;;;5043205;28;20155;-64
2023/06/01 12:09:06;;;;;;;826.97;771.13;;;;;;;;;;5023662;28;20049;-64
2023/06/01 12:11:32;;;;;;;837.50;781.40;;;;;;;;;;5043452;28;20497;-64
2023/06/01 12:13:58;;;;;;;833.67;777.53;;;;;;;;;;5042691;28;20032;-63
2023/06/01 12:16:25;;;;;;;846.37;789.87;;;;;;;;;;5042495;28;20381;-65
2023/06/01 12:18:51;;;;;;;855.30;798.57;;;;;;;;;;5042183;28;20041;-64
2023/06/01 12:21:17;;;;;;;850.50;794.03;;;;;;;;;;5042172;28;20037;-65
2023/06/01 12:23:43;;;;;;;857.47;800.67;;;;;;;;;;5042178;28;20051;-64
2023/06/01 12:26:08;;;;;;;865.90;809.00;;;;;;;;;;5042097;28;20032;-64
2023/06/01 12:28:47;;;;;;;860.63;804.13;;;;;;;;;;5042118;28;20114;-65
2023/06/01 12:31:16;;;;;;;864.87;808.17;;;;;;;;;;5042481;28;20037;-64
2023/06/01 12:33:46;;;;;;;878.50;821.00;;;;;;;;;;5041855;28;20722;-64
2023/06/01 12:36:28;;;;;;;889.87;832.13;;;;;;;;;;5040466;28;20143;-64
2023/06/01 12:38:54;;;;;;;877.63;820.60;;;;;;;;;;5040919;28;20544;-64
2023/06/01 12:41:21;;;;;;;865.33;808.83;;;;;;;;;;5040921;28;20373;-66
2023/06/01 12:43:47;;;;;;;868.10;810.60;;;;;;;;;;5041982;28;20045;-64
2023/06/01 12:46:22;;;;;;;870.93;813.50;;;;;;;;;;5041810;28;20040;-64
2023/06/01 12:48:49;;;;;;;861.87;804.80;;;;;;;;;;5043296;28;20029;-64
2023/06/01 12:51:15;;;;;;;862.00;805.60;;;;;;;;;;5044458;28;20124;-64
2023/06/01 12:53:42;;;;;;;872.13;814.97;;;;;;;;;;5037475;28;20394;-65
2023/06/01 12:56:07;;;;;;;843.87;788.10;;;;;;;;;;5041060;28;20049;-64
2023/06/01 12:58:33;;;;;;;829.83;774.33;;;;;;;;;;5042061;28;20107;-64
2023/06/01 13:00:58;;;;;;;833.37;778.13;;;;;;;;;;5041240;28;20041;-64
2023/06/01 13:03:24;;;;;;;812.80;758.03;;;;;;;;;;5042520;28;20130;-63
2023/06/01 13:05:50;;;;;;;820.80;765.80;;;;;;;;;;5042631;28;20504;-66
2023/06/01 13:08:18;;;;;;;812.17;757.47;;;;;;;;;;5041218;28;20059;-60
2023/06/01 13:10:44;;;;;;;803.53;749.37;;;;;;;;;;5041907;28;20069;-62
2023/06/01 13:13:10;;;;;;;793.53;739.30;;;;;;;;;;5041335;28;20151;-61
2023/06/01 13:15:38;;;;;;;830.23;774.83;;;;;;;;;;5041301;28;20483;-62
2023/06/01 13:18:04;;;;;;;826.60;771.90;;;;;;;;;;5041736;28;20033;-62
2023/06/01 13:20:31;;;;;;;827.97;772.90;;;;;;;;;;5040393;28;20079;-60
2023/06/01 13:22:56;;;;;;;824.13;769.40;;;;;;;;;;5041731;28;20095;-61
2023/06/01 13:25:21;;;;;;;828.57;773.57;;;;;;;;;;5042059;28;20849;-61
2023/06/01 13:27:47;;;;;;;832.83;777.90;;;;;;;;;;5041998;28;20293;-64
2023/06/01 13:30:13;;;;;;;868.03;811.77;;;;;;;;;;5041169;28;20098;-63
2023/06/01 13:32:38;;;;;;;875.97;819.20;;;;;;;;;;5040541;28;20033;-62
2023/06/01 13:35:04;;;;;;;888.97;831.67;;;;;;;;;;5040138;28;20041;-62
2023/06/01 13:37:29;;;;;;;882.00;825.63;;;;;;;;;;5044738;28;20037;-61
2023/06/01 13:39:55;;;;;;;880.63;823.73;;;;;;;;;;5044943;28;20040;-61
2023/06/01 13:42:20;;;;;;;889.33;831.77;;;;;;;;;;5042635;28;20025;-62
2023/06/01 13:44:47;;;;;;;886.57;829.67;;;;;;;;;;5039252;28;20178;-61
2023/06/01 13:47:14;;;;;;;911.53;852.90;;;;;;;;;;5042212;28;20036;-62
2023/06/01 13:49:41;;;;;;;917.73;859.63;;;;;;;;;;5042378;28;20102;-61
2023/06/01 13:52:08;;;;;;;914.33;856.47;;;;;;;;;;5041736;28;20450;-62
2023/06/01 13:54:33;;;;;;;912.63;854.43;;;;;;;;;;5021866;28;20099;-61